< < Back
Terminal Aerodrome Forecast


Current Version              Previous Versions:   1  2  3  4  5  6  7  8  9  

Terminal Aerodrome Forecast

958
FTUS44 KHUN 192103 AAB
TAFHSV
TAF AMD
KHSV 192103Z 1921/2018 21012G17KT 5SM SHRA VCTS BKN035CB
      TEMPO 1921/1923 1SM +TSRA BR
     FM200300 18007KT P6SM BKN060
     FM200900 20010G15KT 5SM SHRA OVC020
     FM201500 26012KT P6SM OVC025=



Latest METAR

632
SAUS80 KWBC 200100
MTRHSV
METAR KHSV 200053Z 22006KT 10SM FEW045 FEW250 20/16 A2967 RMK AO2 SLP042
T02000161 $


USA.gov is the U.S. government's official web portal to all federal, state and local government web resources and services.